Time;durP1;ratioP1;P1;durP2;ratioP2;P2;SDS_P1;SDS_P2;PMS_P1;PMS_P2;Temp;Humidity;BMP_temperature;BMP_pressure;BME280_temperature;BME280_humidity;BME280_pressure;Samples;Min_cycle;Max_cycle;Signal;HPM_P1;HPM_P2
2023/09/30 00:00:44;;;;;;;15.90;4.72;;;11.50;99.90;;;;;;5072360;28;20024;-66
2023/09/30 00:03:10;;;;;;;18.40;4.75;;;11.50;99.90;;;;;;5058784;28;20036;-65
2023/09/30 00:05:37;;;;;;;14.57;5.60;;;11.50;99.90;;;;;;5076041;28;20035;-66
2023/09/30 00:08:03;;;;;;;14.65;4.40;;;11.40;99.90;;;;;;5074082;28;20556;-65
2023/09/30 00:10:30;;;;;;;19.35;5.03;;;11.30;99.90;;;;;;5057511;28;20085;-65
2023/09/30 00:12:56;;;;;;;21.23;4.88;;;11.30;99.90;;;;;;5076193;28;20082;-62
2023/09/30 00:15:22;;;;;;;16.13;5.20;;;11.30;99.90;;;;;;5073785;28;20036;-64
2023/09/30 00:17:47;;;;;;;21.13;5.38;;;11.30;99.90;;;;;;5069114;28;20042;-65
2023/09/30 00:20:14;;;;;;;17.27;4.93;;;11.30;99.90;;;;;;5074774;28;20036;-61
2023/09/30 00:22:41;;;;;;;11.95;5.00;;;11.30;99.90;;;;;;5074295;28;20025;-64
2023/09/30 00:25:07;;;;;;;24.75;4.65;;;11.30;99.90;;;;;;5075352;28;20027;-66
2023/09/30 00:27:32;;;;;;;20.55;5.53;;;11.20;99.90;;;;;;5074900;28;20036;-64
2023/09/30 00:29:58;;;;;;;18.30;4.40;;;11.20;99.90;;;;;;5076068;28;20042;-65
2023/09/30 00:32:23;;;;;;;13.77;4.53;;;11.20;99.90;;;;;;5074844;28;20036;-64
2023/09/30 00:34:51;;;;;;;20.88;4.65;;;11.20;99.90;;;;;;5074417;28;20509;-66
2023/09/30 00:37:16;;;;;;;19.88;4.60;;;11.20;99.90;;;;;;5075074;28;20028;-66
2023/09/30 00:39:42;;;;;;;20.00;5.97;;;11.20;99.90;;;;;;5072999;28;20052;-64
2023/09/30 00:42:07;;;;;;;22.30;6.30;;;11.20;99.90;;;;;;5073791;28;20107;-66
2023/09/30 00:44:33;;;;;;;15.98;4.95;;;11.20;99.90;;;;;;5072821;28;20178;-64
2023/09/30 00:46:59;;;;;;;24.30;4.72;;;11.30;99.90;;;;;;5075826;28;20028;-65
2023/09/30 00:49:25;;;;;;;14.95;5.28;;;11.20;99.90;;;;;;5073642;28;20116;-65
2023/09/30 00:51:52;;;;;;;18.48;5.50;;;11.30;99.90;;;;;;5071528;28;20016;-65
2023/09/30 00:54:18;;;;;;;24.80;5.68;;;11.20;99.90;;;;;;5074234;28;20044;-63
2023/09/30 00:56:46;;;;;;;18.33;5.50;;;11.30;99.90;;;;;;5072900;28;20443;-67
2023/09/30 00:59:14;;;;;;;25.30;5.35;;;11.30;99.90;;;;;;5073303;28;20653;-65
2023/09/30 01:01:43;;;;;;;18.38;5.78;;;11.30;99.90;;;;;;5074035;28;20426;-63
2023/09/30 01:04:10;;;;;;;21.25;5.90;;;11.30;99.90;;;;;;5074964;28;20024;-63
2023/09/30 01:06:36;;;;;;;16.13;5.22;;;11.40;99.90;;;;;;5076701;28;20463;-63
2023/09/30 01:09:02;;;;;;;20.15;6.35;;;11.40;99.90;;;;;;5076629;28;20024;-64
2023/09/30 01:11:28;;;;;;;19.75;5.38;;;11.40;99.90;;;;;;5059194;28;20033;-64
2023/09/30 01:13:55;;;;;;;18.90;5.38;;;11.40;99.90;;;;;;5074708;28;20047;-64
2023/09/30 01:16:21;;;;;;;26.23;5.65;;;11.30;99.90;;;;;;5078213;28;20515;-66
2023/09/30 01:18:46;;;;;;;16.40;5.22;;;11.30;99.90;;;;;;5078956;28;20028;-64
2023/09/30 01:21:12;;;;;;;17.02;6.07;;;11.40;99.90;;;;;;5079157;28;20040;-65
2023/09/30 01:23:38;;;;;;;22.88;5.22;;;11.30;99.90;;;;;;5075630;28;20033;-64
2023/09/30 01:26:12;;;;;;;18.15;4.85;;;11.30;99.90;;;;;;5078622;28;20035;-65
2023/09/30 01:28:38;;;;;;;18.20;5.85;;;11.20;99.90;;;;;;5077823;28;20043;-66
2023/09/30 01:31:05;;;;;;;18.10;6.15;;;11.20;99.90;;;;;;5079837;28;21188;-65
2023/09/30 01:33:30;;;;;;;17.92;4.60;;;11.20;99.90;;;;;;5078427;28;20447;-65
2023/09/30 01:35:56;;;;;;;19.92;4.57;;;11.20;99.90;;;;;;5077542;28;20036;-63
2023/09/30 01:38:22;;;;;;;15.77;4.85;;;11.20;99.90;;;;;;5076558;28;20033;-65
2023/09/30 01:40:47;;;;;;;20.27;5.15;;;11.20;99.90;;;;;;5077809;28;20590;-63
2023/09/30 01:43:14;;;;;;;26.30;5.40;;;11.30;99.90;;;;;;5076441;28;20031;-62
2023/09/30 01:45:42;;;;;;;36.28;5.55;;;11.30;99.90;;;;;;5078585;28;20493;-63
2023/09/30 01:48:11;;;;;;;10.13;4.00;;;11.30;99.90;;;;;;5075826;28;20032;-64
2023/09/30 01:50:40;;;;;;;9.82;4.13;;;11.30;99.90;;;;;;5075562;28;20028;-64
2023/09/30 01:53:07;;;;;;;17.08;5.53;;;11.20;99.90;;;;;;5075208;28;20043;-63
2023/09/30 01:55:33;;;;;;;19.67;6.18;;;11.20;99.90;;;;;;5077481;28;20035;-65
2023/09/30 01:57:59;;;;;;;24.30;5.68;;;11.20;99.90;;;;;;5078623;28;20154;-66
2023/09/30 02:00:25;;;;;;;20.05;5.85;;;11.30;99.90;;;;;;5077554;28;20222;-65
2023/09/30 02:02:50;;;;;;;20.17;5.85;;;11.20;99.90;;;;;;5076953;28;20047;-63
2023/09/30 02:05:16;;;;;;;15.02;5.47;;;11.20;99.90;;;;;;5057223;28;20123;-63
2023/09/30 02:07:42;;;;;;;15.38;5.30;;;11.20;99.90;;;;;;5055339;28;20045;-64
2023/09/30 02:10:08;;;;;;;17.85;5.03;;;11.20;99.90;;;;;;5077954;28;20084;-63
2023/09/30 02:12:33;;;;;;;7.65;4.45;;;11.20;99.90;;;;;;5075593;28;20040;-66
2023/09/30 02:14:59;;;;;;;14.75;5.20;;;11.20;99.90;;;;;;5076322;28;20081;-65
2023/09/30 02:17:25;;;;;;;12.32;5.75;;;11.20;99.90;;;;;;5073157;28;20033;-66
2023/09/30 02:19:50;;;;;;;10.80;4.20;;;11.10;99.90;;;;;;5076271;28;20059;-65
2023/09/30 02:22:16;;;;;;;12.23;4.90;;;11.00;99.90;;;;;;5078974;28;20032;-65
2023/09/30 02:24:41;;;;;;;20.00;5.40;;;11.00;99.90;;;;;;5074337;28;20032;-65
2023/09/30 02:27:07;;;;;;;17.25;4.80;;;11.00;99.90;;;;;;5073925;28;20035;-64
2023/09/30 02:29:33;;;;;;;24.55;6.07;;;11.00;99.90;;;;;;5077052;28;20019;-63
2023/09/30 02:31:59;;;;;;;13.38;5.40;;;11.00;99.90;;;;;;5060433;28;20028;-60
2023/09/30 02:34:25;;;;;;;19.63;6.00;;;11.00;99.90;;;;;;5077728;28;20028;-66
2023/09/30 02:36:51;;;;;;;26.55;6.35;;;11.00;99.90;;;;;;5077014;28;20141;-65
2023/09/30 02:39:17;;;;;;;16.30;6.13;;;11.00;99.90;;;;;;5078539;28;20028;-66
2023/09/30 02:41:43;;;;;;;16.50;6.88;;;11.00;99.90;;;;;;5060704;28;20089;-65
2023/09/30 02:44:09;;;;;;;18.33;5.13;;;10.90;99.90;;;;;;5075818;28;20050;-66
2023/09/30 02:46:35;;;;;;;13.60;5.82;;;11.00;99.90;;;;;;5075940;28;20058;-66
2023/09/30 02:49:03;;;;;;;15.82;5.68;;;11.00;99.90;;;;;;5058846;28;20044;-64
2023/09/30 02:51:30;;;;;;;21.58;6.47;;;11.00;99.90;;;;;;5080620;28;20078;-66
2023/09/30 02:53:56;;;;;;;16.65;5.50;;;11.10;99.90;;;;;;5076822;28;20122;-66
2023/09/30 02:56:24;;;;;;;22.15;7.35;;;11.10;99.90;;;;;;5078065;28;20471;-66
2023/09/30 02:58:51;;;;;;;18.13;5.38;;;11.10;99.90;;;;;;5080510;28;20029;-64
2023/09/30 03:01:17;;;;;;;23.33;6.10;;;11.20;99.90;;;;;;5078860;28;20036;-65
2023/09/30 03:03:46;;;;;;;15.57;4.70;;;11.30;99.90;;;;;;5077558;28;20446;-64
2023/09/30 03:06:11;;;;;;;16.45;5.32;;;11.30;99.90;;;;;;5078577;28;20107;-64
2023/09/30 03:08:37;;;;;;;30.73;5.78;;;11.40;99.90;;;;;;5080237;28;20139;-63
2023/09/30 03:11:04;;;;;;;30.35;7.13;;;11.40;99.90;;;;;;5079449;28;20040;-65
2023/09/30 03:13:30;;;;;;;52.35;8.68;;;11.50;99.90;;;;;;5078754;28;20028;-66
2023/09/30 03:15:56;;;;;;;30.90;7.68;;;11.50;99.90;;;;;;5080728;28;20110;-64
2023/09/30 03:18:26;;;;;;;30.05;6.47;;;11.60;99.90;;;;;;5061090;28;20430;-64
2023/09/30 03:20:56;;;;;;;35.67;7.30;;;11.60;99.90;;;;;;5076963;28;20034;-65
2023/09/30 03:23:22;;;;;;;26.52;7.70;;;11.60;99.90;;;;;;5077142;28;20058;-65
2023/09/30 03:25:48;;;;;;;25.25;7.60;;;11.60;99.90;;;;;;5077447;28;20031;-65
2023/09/30 03:28:14;;;;;;;40.33;8.95;;;11.60;99.90;;;;;;5073072;28;20029;-64
2023/09/30 03:30:40;;;;;;;15.50;5.85;;;11.60;99.90;;;;;;5075835;28;20024;-66
2023/09/30 03:33:06;;;;;;;22.92;6.20;;;11.70;99.90;;;;;;5075262;28;20538;-65
2023/09/30 03:35:32;;;;;;;30.42;5.68;;;11.70;99.90;;;;;;5077061;28;20028;-65
2023/09/30 03:37:58;;;;;;;42.38;5.88;;;11.70;99.90;;;;;;5077162;28;20032;-66
2023/09/30 03:40:28;;;;;;;35.58;4.88;;;11.70;99.90;;;;;;5074741;28;20119;-66
2023/09/30 03:42:54;;;;;;;23.27;4.85;;;11.60;99.90;;;;;;5073566;28;20042;-65
2023/09/30 03:45:20;;;;;;;30.88;5.97;;;11.50;99.90;;;;;;5076525;28;20020;-65
2023/09/30 03:47:47;;;;;;;13.43;5.35;;;11.50;99.90;;;;;;5078168;28;20028;-65
2023/09/30 03:50:14;;;;;;;13.95;5.40;;;11.40;99.90;;;;;;5077989;28;20032;-65
2023/09/30 03:52:44;;;;;;;15.43;5.10;;;11.40;99.90;;;;;;5077582;28;20069;-66
2023/09/30 03:55:15;;;;;;;15.05;5.78;;;11.30;99.90;;;;;;5075696;28;20032;-65
2023/09/30 03:57:41;;;;;;;21.15;5.20;;;11.30;99.90;;;;;;5072919;28;20089;-66
2023/09/30 04:00:07;;;;;;;13.30;6.22;;;11.30;99.90;;;;;;5077664;28;20415;-62
2023/09/30 04:02:33;;;;;;;25.95;6.60;;;11.30;99.90;;;;;;5073695;28;20032;-66
2023/09/30 04:04:59;;;;;;;27.33;6.15;;;11.30;99.90;;;;;;5078293;28;20035;-64
2023/09/30 04:07:27;;;;;;;36.50;6.88;;;11.30;99.90;;;;;;5054987;28;20462;-63
2023/09/30 04:09:55;;;;;;;23.88;6.70;;;11.30;99.90;;;;;;5076930;28;20143;-63
2023/09/30 04:12:25;;;;;;;24.55;5.60;;;11.40;99.90;;;;;;5073979;28;20482;-64
2023/09/30 04:14:52;;;;;;;61.42;5.45;;;11.40;99.90;;;;;;5074240;28;20111;-66
2023/09/30 04:17:17;;;;;;;17.95;5.40;;;11.40;99.90;;;;;;5077291;28;20036;-65
2023/09/30 04:19:43;;;;;;;46.88;4.90;;;11.40;99.90;;;;;;5078604;28;20024;-64
2023/09/30 04:22:08;;;;;;;30.60;5.82;;;11.40;99.90;;;;;;5076036;28;20035;-61
2023/09/30 04:24:34;;;;;;;20.95;6.30;;;11.40;99.90;;;;;;5075130;28;20070;-65
2023/09/30 04:27:03;;;;;;;43.50;5.30;;;11.40;99.90;;;;;;5073845;28;20060;-65
2023/09/30 04:29:29;;;;;;;58.15;6.80;;;11.30;99.90;;;;;;5073496;28;20024;-66
2023/09/30 04:31:55;;;;;;;40.55;7.10;;;11.30;99.90;;;;;;5073092;28;20036;-65
2023/09/30 04:34:21;;;;;;;24.00;5.57;;;11.40;99.90;;;;;;5072276;28;20047;-65
2023/09/30 04:36:47;;;;;;;29.27;6.65;;;11.40;99.90;;;;;;5074881;28;20021;-65
2023/09/30 04:39:14;;;;;;;31.45;6.53;;;11.40;99.90;;;;;;5073819;28;20759;-65
2023/09/30 04:41:41;;;;;;;29.10;5.78;;;11.30;99.90;;;;;;5075237;28;20085;-63
2023/09/30 04:44:09;;;;;;;40.92;7.00;;;11.40;99.90;;;;;;5069906;28;20056;-62
2023/09/30 04:46:35;;;;;;;38.13;6.10;;;11.40;99.90;;;;;;5070839;28;20665;-64
2023/09/30 04:49:04;;;;;;;26.65;6.45;;;11.40;99.90;;;;;;5073531;28;20029;-65
2023/09/30 04:51:32;;;;;;;16.23;5.85;;;11.50;99.90;;;;;;5073954;28;20032;-65
2023/09/30 04:53:59;;;;;;;25.08;6.70;;;11.50;99.90;;;;;;5073543;28;20028;-65
2023/09/30 04:56:25;;;;;;;37.92;6.85;;;11.50;99.90;;;;;;5073599;28;20027;-65
2023/09/30 04:58:50;;;;;;;24.88;6.80;;;11.60;99.90;;;;;;5071464;28;20032;-65
2023/09/30 05:01:18;;;;;;;36.70;6.82;;;11.60;99.90;;;;;;5076137;28;20125;-65
2023/09/30 05:03:50;;;;;;;58.50;7.47;;;11.50;99.90;;;;;;5074426;28;20031;-65
2023/09/30 05:06:16;;;;;;;45.38;7.97;;;11.50;99.90;;;;;;5071576;28;20037;-66
2023/09/30 05:08:41;;;;;;;52.05;6.50;;;11.40;99.90;;;;;;5076499;28;20098;-66
2023/09/30 05:11:07;;;;;;;61.75;6.45;;;11.30;99.90;;;;;;5072952;28;20040;-65
2023/09/30 05:13:36;;;;;;;48.88;6.35;;;11.30;99.90;;;;;;5074784;28;20032;-65
2023/09/30 05:16:03;;;;;;;19.52;5.93;;;11.30;99.90;;;;;;5074589;28;20036;-66
2023/09/30 05:18:29;;;;;;;19.85;5.90;;;11.30;99.90;;;;;;5073595;28;20055;-64
2023/09/30 05:20:55;;;;;;;24.63;5.97;;;11.30;99.90;;;;;;5074885;28;20031;-65
2023/09/30 05:23:20;;;;;;;26.02;6.50;;;11.30;99.90;;;;;;5074230;28;20600;-65
2023/09/30 05:25:46;;;;;;;105.20;6.85;;;11.30;99.90;;;;;;5073218;28;20052;-67
2023/09/30 05:28:13;;;;;;;59.15;6.72;;;11.30;99.90;;;;;;5074411;28;20032;-65
2023/09/30 05:30:40;;;;;;;38.45;7.40;;;11.20;99.90;;;;;;5077204;28;20038;-62
2023/09/30 05:33:06;;;;;;;65.68;7.35;;;11.30;99.90;;;;;;5057393;28;20175;-66
2023/09/30 05:35:32;;;;;;;109.70;7.55;;;11.30;99.90;;;;;;5074417;28;20028;-64
2023/09/30 05:37:58;;;;;;;78.20;8.02;;;11.40;99.90;;;;;;5073661;28;20036;-66
2023/09/30 05:40:26;;;;;;;122.55;7.90;;;11.30;99.90;;;;;;5072479;28;20037;-65
2023/09/30 05:42:59;;;;;;;188.23;8.77;;;11.40;99.90;;;;;;5072709;28;20111;-63
2023/09/30 05:45:27;;;;;;;166.25;9.35;;;11.30;99.90;;;;;;5075940;28;20016;-65
2023/09/30 05:47:54;;;;;;;81.90;7.53;;;11.30;99.90;;;;;;5072077;28;20039;-66
2023/09/30 05:50:26;;;;;;;87.38;9.57;;;11.30;99.90;;;;;;5074360;28;20029;-65
2023/09/30 05:52:54;;;;;;;158.82;8.95;;;11.40;99.90;;;;;;5073616;28;20025;-63
2023/09/30 05:55:20;;;;;;;89.68;7.25;;;11.40;99.90;;;;;;5072636;28;20063;-64
2023/09/30 05:57:48;;;;;;;46.28;6.55;;;11.40;99.90;;;;;;5072096;28;20473;-64
2023/09/30 06:00:35;;;;;;;106.60;9.02;;;11.40;99.90;;;;;;5073137;28;21128;-65
2023/09/30 06:02:59;;;;;;;55.30;5.55;;;11.40;99.90;;;;;;5074741;28;20054;-66
2023/09/30 06:05:26;;;;;;;104.43;7.45;;;11.40;99.90;;;;;;5078354;28;20028;-64
2023/09/30 06:07:54;;;;;;;110.97;7.35;;;11.30;99.90;;;;;;5077674;28;20035;-65
2023/09/30 06:10:19;;;;;;;79.13;6.57;;;11.40;99.90;;;;;;5076147;28;20197;-64
2023/09/30 06:12:54;;;;;;;111.43;6.63;;;11.40;99.90;;;;;;5075750;28;20032;-64
2023/09/30 06:15:21;;;;;;;73.75;6.22;;;11.40;99.90;;;;;;5076612;28;20032;-63
2023/09/30 06:17:51;;;;;;;111.65;7.05;;;11.40;99.90;;;;;;5059269;28;20028;-65
2023/09/30 06:20:22;;;;;;;114.00;8.35;;;11.40;99.90;;;;;;5076231;28;20060;-65
2023/09/30 06:22:53;;;;;;;85.38;7.00;;;11.50;99.90;;;;;;5075320;28;20124;-65
2023/09/30 06:25:19;;;;;;;147.30;8.00;;;11.60;99.90;;;;;;5075427;28;20028;-64
2023/09/30 06:27:45;;;;;;;187.10;10.77;;;11.60;99.90;;;;;;5076985;28;20297;-64
2023/09/30 06:30:13;;;;;;;114.30;8.52;;;11.60;99.90;;;;;;5078674;28;20020;-64
2023/09/30 06:32:40;;;;;;;107.07;6.78;;;11.70;99.90;;;;;;5074067;28;20024;-65
2023/09/30 06:35:06;;;;;;;77.13;7.85;;;11.70;99.90;;;;;;5059998;28;20036;-66
2023/09/30 06:37:32;;;;;;;68.22;6.70;;;11.70;99.90;;;;;;5076767;28;20032;-65
2023/09/30 06:39:58;;;;;;;157.20;7.40;;;11.80;99.90;;;;;;5076388;28;20055;-64
2023/09/30 06:42:25;;;;;;;121.70;7.50;;;11.80;99.90;;;;;;5060009;28;20107;-66
2023/09/30 06:44:50;;;;;;;130.70;6.45;;;11.80;99.90;;;;;;5077403;28;20031;-64
2023/09/30 06:47:16;;;;;;;80.90;7.47;;;11.90;99.90;;;;;;5072987;28;20024;-66
2023/09/30 06:49:41;;;;;;;84.28;6.72;;;12.00;99.90;;;;;;5061299;28;20024;-64
2023/09/30 06:52:07;;;;;;;97.43;7.10;;;12.00;99.90;;;;;;5075862;28;20032;-61
2023/09/30 06:54:33;;;;;;;104.53;6.93;;;12.10;99.90;;;;;;5074730;28;20109;-65
2023/09/30 06:56:59;;;;;;;115.47;9.40;;;12.10;99.90;;;;;;5078518;28;20477;-64
2023/09/30 06:59:25;;;;;;;63.00;6.10;;;12.10;99.90;;;;;;5076866;28;20039;-65
2023/09/30 07:01:51;;;;;;;107.15;6.93;;;12.20;99.90;;;;;;5078364;28;20028;-66
2023/09/30 07:04:17;;;;;;;115.30;7.70;;;12.30;99.90;;;;;;5075109;28;20056;-67
2023/09/30 07:06:42;;;;;;;51.10;6.10;;;12.30;99.90;;;;;;5080386;28;20063;-65
2023/09/30 07:09:10;;;;;;;51.60;5.88;;;12.60;99.90;;;;;;5078297;28;20032;-64
2023/09/30 07:11:35;;;;;;;47.80;6.00;;;12.70;99.90;;;;;;5076331;28;20024;-65
2023/09/30 07:14:01;;;;;;;173.25;7.43;;;12.70;99.90;;;;;;5074269;28;21155;-65
2023/09/30 07:16:27;;;;;;;62.80;6.15;;;12.70;99.90;;;;;;5076630;28;20036;-65
2023/09/30 07:18:52;;;;;;;60.67;5.28;;;12.70;99.90;;;;;;5075567;28;20036;-65
2023/09/30 07:21:18;;;;;;;38.17;5.70;;;12.90;99.90;;;;;;5077127;28;20036;-65
2023/09/30 07:23:43;;;;;;;154.07;7.30;;;13.00;99.90;;;;;;5076026;28;20493;-66
2023/09/30 07:26:09;;;;;;;111.40;6.55;;;13.00;99.90;;;;;;5076448;28;20032;-61
2023/09/30 07:28:34;;;;;;;83.75;6.20;;;13.10;99.90;;;;;;5075311;28;20038;-66
2023/09/30 07:31:00;;;;;;;57.85;5.78;;;13.20;99.90;;;;;;5075157;28;20138;-64
2023/09/30 07:33:26;;;;;;;88.50;6.80;;;13.20;99.90;;;;;;5075307;28;20032;-66
2023/09/30 07:35:51;;;;;;;39.67;5.65;;;13.20;99.90;;;;;;5077014;28;20047;-65
2023/09/30 07:38:17;;;;;;;112.75;6.43;;;13.30;99.90;;;;;;5076651;28;20385;-64
2023/09/30 07:40:43;;;;;;;67.63;5.40;;;13.20;99.90;;;;;;5074761;28;20036;-64
2023/09/30 07:43:09;;;;;;;53.47;5.15;;;13.50;99.90;;;;;;5077863;28;20033;-65
2023/09/30 07:45:34;;;;;;;142.23;6.57;;;13.60;99.90;;;;;;5076716;28;20107;-64
2023/09/30 07:48:03;;;;;;;73.30;5.18;;;13.60;99.90;;;;;;5072083;28;20032;-65
2023/09/30 07:50:28;;;;;;;61.55;5.72;;;13.50;99.90;;;;;;5073210;28;20020;-65
2023/09/30 07:52:54;;;;;;;33.55;6.22;;;13.50;99.90;;;;;;5073216;28;20051;-61
2023/09/30 07:55:19;;;;;;;51.60;6.72;;;13.80;99.90;;;;;;5073286;28;20089;-65
2023/09/30 07:57:46;;;;;;;72.93;6.13;;;13.90;99.90;;;;;;5073408;28;20032;-65
2023/09/30 08:00:15;;;;;;;56.83;5.75;;;14.20;99.90;;;;;;5073751;28;20037;-65
2023/09/30 08:02:41;;;;;;;16.02;4.60;;;14.60;99.90;;;;;;5073401;28;20043;-64
2023/09/30 08:05:07;;;;;;;46.55;5.63;;;14.70;99.90;;;;;;5073924;28;20482;-64
2023/09/30 08:07:34;;;;;;;15.88;5.93;;;15.10;99.90;;;;;;5075565;28;20639;-66
2023/09/30 08:10:00;;;;;;;46.30;5.65;;;15.00;99.90;;;;;;5079594;28;20036;-66
2023/09/30 08:12:25;;;;;;;8.18;5.65;;;15.00;99.90;;;;;;5077504;28;20044;-66
2023/09/30 08:14:54;;;;;;;9.45;5.13;;;15.10;99.90;;;;;;5077029;28;20115;-65
2023/09/30 08:17:19;;;;;;;10.07;5.55;;;15.30;99.90;;;;;;5076398;28;20040;-65
2023/09/30 08:19:47;;;;;;;9.60;5.47;;;15.30;99.90;;;;;;5076701;28;20031;-65
2023/09/30 08:22:13;;;;;;;16.38;6.20;;;15.50;99.90;;;;;;5076065;28;20128;-66
2023/09/30 08:24:39;;;;;;;20.15;6.50;;;15.40;99.90;;;;;;5075660;28;20561;-64
2023/09/30 08:27:05;;;;;;;9.95;6.03;;;15.40;99.90;;;;;;5075001;28;20421;-65
2023/09/30 08:29:35;;;;;;;13.43;5.38;;;15.50;99.90;;;;;;5076634;28;20040;-65
2023/09/30 08:32:02;;;;;;;21.38;6.47;;;15.50;99.90;;;;;;5077169;28;20081;-65
2023/09/30 08:34:28;;;;;;;64.50;5.78;;;15.50;99.90;;;;;;5075145;28;20449;-65
2023/09/30 08:36:54;;;;;;;11.32;5.70;;;15.70;99.90;;;;;;5075175;28;20023;-66
2023/09/30 08:39:19;;;;;;;13.23;7.35;;;15.90;99.90;;;;;;5057794;28;20039;-65
2023/09/30 08:41:45;;;;;;;10.65;5.97;;;16.70;99.90;;;;;;5078245;28;20048;-67
2023/09/30 08:44:12;;;;;;;11.27;6.50;;;16.90;99.90;;;;;;5075074;28;20024;-64
2023/09/30 08:46:40;;;;;;;12.57;6.35;;;16.80;99.90;;;;;;5076379;28;20028;-63
2023/09/30 08:49:08;;;;;;;15.88;7.90;;;16.20;99.90;;;;;;5076675;28;20375;-67
2023/09/30 08:51:35;;;;;;;14.07;7.68;;;15.90;99.90;;;;;;5075843;28;20032;-65
2023/09/30 08:54:05;;;;;;;15.68;7.13;;;15.80;99.90;;;;;;5047142;27;20047;-64
2023/09/30 08:56:34;;;;;;;13.50;6.53;;;16.10;99.90;;;;;;5074781;28;20078;-65
2023/09/30 08:59:02;;;;;;;11.75;6.90;;;16.50;99.90;;;;;;5075604;28;20028;-66
2023/09/30 09:01:29;;;;;;;13.30;7.22;;;16.40;99.90;;;;;;5058175;28;20056;-65
2023/09/30 09:03:55;;;;;;;11.93;6.35;;;16.40;99.90;;;;;;5074521;28;20032;-65
2023/09/30 09:06:25;;;;;;;12.32;6.15;;;16.40;99.90;;;;;;5074478;28;20017;-64
2023/09/30 09:08:52;;;;;;;15.18;5.85;;;16.60;99.90;;;;;;5076544;28;20042;-65
2023/09/30 09:11:18;;;;;;;11.15;5.93;;;16.70;99.90;;;;;;5074946;28;20062;-65
2023/09/30 09:13:55;;;;;;;18.45;6.18;;;16.80;99.90;;;;;;5077341;28;20036;-65
2023/09/30 09:16:21;;;;;;;15.23;6.07;;;17.20;99.90;;;;;;5074566;28;20039;-62
2023/09/30 09:18:47;;;;;;;10.38;5.45;;;17.70;99.90;;;;;;5075424;28;20180;-65
2023/09/30 09:21:14;;;;;;;13.68;5.70;;;18.10;99.90;;;;;;5076461;28;20497;-67
2023/09/30 09:23:44;;;;;;;9.40;4.93;;;18.40;99.90;;;;;;5072905;28;20024;-66
2023/09/30 09:26:25;;;;;;;13.82;5.75;;;18.40;99.90;;;;;;5074718;28;20107;-64
2023/09/30 09:28:57;;;;;;;11.07;4.88;;;18.90;99.90;;;;;;5076205;28;20020;-65
2023/09/30 09:31:24;;;;;;;8.80;4.13;;;19.30;99.90;;;;;;5077394;28;20035;-65
2023/09/30 09:33:50;;;;;;;10.10;3.88;;;20.20;99.90;;;;;;5074632;28;20493;-64
2023/09/30 09:36:17;;;;;;;10.43;3.97;;;20.80;99.90;;;;;;5074986;28;20366;-64
2023/09/30 09:38:53;;;;;;;8.10;3.50;;;21.00;99.90;;;;;;5081147;28;20549;-66
2023/09/30 09:41:19;;;;;;;13.30;5.82;;;21.40;99.90;;;;;;5078058;28;20506;-66
2023/09/30 09:43:48;;;;;;;7.80;4.70;;;20.70;99.90;;;;;;5079616;28;20496;-67
2023/09/30 09:46:13;;;;;;;10.30;3.83;;;20.80;99.90;;;;;;5077340;28;20033;-66
2023/09/30 09:48:40;;;;;;;8.20;3.70;;;21.60;99.90;;;;;;5080358;28;20021;-66
2023/09/30 09:51:07;;;;;;;10.05;3.72;;;21.20;99.90;;;;;;5078043;28;20031;-66
2023/09/30 09:53:37;;;;;;;10.73;4.20;;;20.60;99.90;;;;;;5078478;28;20119;-66
2023/09/30 09:56:05;;;;;;;12.35;4.90;;;20.70;99.90;;;;;;5078699;28;20497;-68
2023/09/30 09:58:34;;;;;;;10.52;4.65;;;20.70;99.90;;;;;;5079425;28;20075;-66
2023/09/30 10:01:01;;;;;;;9.77;4.55;;;20.90;99.90;;;;;;5079206;28;20024;-65
2023/09/30 10:03:27;;;;;;;8.35;4.22;;;20.90;99.90;;;;;;5078209;28;20020;-67
2023/09/30 10:05:53;;;;;;;11.32;4.50;;;20.80;99.90;;;;;;5078485;28;20035;-66
2023/09/30 10:08:28;;;;;;;12.25;4.88;;;20.10;99.90;;;;;;5078661;28;20536;-68
2023/09/30 10:10:57;;;;;;;12.95;4.30;;;20.00;99.90;;;;;;5078389;27;20039;-65
2023/09/30 10:13:52;;;;;;;13.57;5.07;;;19.90;99.90;;;;;;5078517;28;20028;-67
2023/09/30 10:16:47;;;;;;;11.32;4.50;;;19.90;99.90;;;;;;5076877;28;20028;-65
2023/09/30 10:19:23;;;;;;;12.20;5.10;;;19.80;99.90;;;;;;5067040;28;20721;-66
2023/09/30 10:22:18;;;;;;;12.30;5.03;;;19.50;99.90;;;;;;5061287;28;20112;-65
2023/09/30 10:24:45;;;;;;;14.63;5.35;;;19.40;99.90;;;;;;5078090;28;20069;-66
2023/09/30 10:27:29;;;;;;;16.83;4.97;;;19.40;99.90;;;;;;5079829;28;20025;-65
2023/09/30 10:30:22;;;;;;;9.70;4.78;;;19.00;99.90;;;;;;5078279;28;20019;-66
2023/09/30 10:32:50;;;;;;;13.88;5.57;;;18.90;99.90;;;;;;5076656;28;20099;-65
2023/09/30 10:35:41;;;;;;;13.73;4.93;;;18.80;99.90;;;;;;5061069;28;20040;-67
2023/09/30 10:38:22;;;;;;;12.13;5.00;;;18.80;99.90;;;;;;5076583;28;20689;-66
2023/09/30 10:40:48;;;;;;;10.55;4.43;;;19.30;99.90;;;;;;5078022;28;20103;-64
2023/09/30 10:43:32;;;;;;;18.25;5.70;;;19.60;99.90;;;;;;5077782;28;20916;-65
2023/09/30 10:45:59;;;;;;;11.73;5.22;;;19.40;99.90;;;;;;5079335;28;20031;-65
2023/09/30 10:48:43;;;;;;;7.15;3.90;;;19.50;99.90;;;;;;5074955;28;20024;-62
2023/09/30 10:51:14;;;;;;;16.38;5.05;;;19.80;99.90;;;;;;5074577;28;20928;-65
2023/09/30 10:54:00;;;;;;;10.95;4.63;;;19.70;99.90;;;;;;5075342;28;20039;-64
2023/09/30 10:56:33;;;;;;;10.77;4.50;;;19.50;99.90;;;;;;5078398;28;20055;-63
2023/09/30 10:59:00;;;;;;;10.35;4.18;;;19.30;99.90;;;;;;5078784;28;20039;-66
2023/09/30 11:01:31;;;;;;;13.30;4.68;;;19.30;99.90;;;;;;5075992;28;20522;-66
2023/09/30 11:04:04;;;;;;;9.82;3.85;;;19.30;99.90;;;;;;5077217;28;20031;-63
2023/09/30 11:06:30;;;;;;;8.13;3.63;;;19.20;99.90;;;;;;5076122;28;20028;-67
2023/09/30 11:08:59;;;;;;;19.13;4.18;;;19.40;99.90;;;;;;5079008;28;20040;-64
2023/09/30 11:11:48;;;;;;;11.88;4.35;;;19.40;99.90;;;;;;5076434;28;20028;-64
2023/09/30 11:14:29;;;;;;;9.77;4.03;;;19.20;99.90;;;;;;5076679;28;20773;-66
2023/09/30 11:16:56;;;;;;;12.13;4.07;;;19.30;99.90;;;;;;5076720;28;20572;-65
2023/09/30 11:19:22;;;;;;;8.73;4.22;;;19.20;99.90;;;;;;5077686;28;20025;-66
2023/09/30 11:21:49;;;;;;;12.38;3.83;;;19.50;99.90;;;;;;5077442;28;20111;-63
2023/09/30 11:24:15;;;;;;;11.45;4.05;;;19.70;99.90;;;;;;5076045;28;20094;-65
2023/09/30 11:26:41;;;;;;;9.07;3.60;;;19.80;99.90;;;;;;5080341;28;20023;-65
2023/09/30 11:29:13;;;;;;;18.85;3.50;;;19.60;99.90;;;;;;5076729;28;20028;-65
2023/09/30 11:31:46;;;;;;;7.15;3.10;;;19.30;99.90;;;;;;5077072;28;20070;-65
2023/09/30 11:34:12;;;;;;;12.07;3.85;;;19.10;99.90;;;;;;5059988;28;20036;-65
2023/09/30 11:36:42;;;;;;;9.80;4.32;;;19.00;99.90;;;;;;5060071;28;20044;-64
2023/09/30 11:39:09;;;;;;;16.02;4.35;;;19.10;99.90;;;;;;5078805;28;20077;-65
2023/09/30 11:41:39;;;;;;;12.27;3.83;;;19.20;99.90;;;;;;5079271;28;20042;-65
2023/09/30 11:44:12;;;;;;;10.52;4.70;;;19.50;99.90;;;;;;5076776;28;20398;-66
2023/09/30 11:46:51;;;;;;;12.20;3.63;;;19.60;99.90;;;;;;5076548;28;20055;-66
2023/09/30 11:49:40;;;;;;;9.63;3.67;;;19.50;99.90;;;;;;5076514;28;20108;-65
2023/09/30 11:52:11;;;;;;;7.10;3.35;;;19.60;99.90;;;;;;5078536;28;20016;-66
2023/09/30 11:54:40;;;;;;;11.02;3.22;;;19.80;99.90;;;;;;5078670;28;20107;-66
2023/09/30 11:57:09;;;;;;;8.52;2.95;;;19.80;99.90;;;;;;5078945;28;20022;-67
2023/09/30 11:59:36;;;;;;;8.10;2.70;;;19.70;99.90;;;;;;5077270;28;20035;-66
2023/09/30 12:02:03;;;;;;;9.60;3.22;;;19.60;99.90;;;;;;5078638;28;20033;-63
2023/09/30 12:04:29;;;;;;;6.05;2.78;;;19.50;99.90;;;;;;5076191;28;20541;-66
2023/09/30 12:06:56;;;;;;;6.75;2.22;;;19.50;99.90;;;;;;5076304;28;20059;-66
2023/09/30 12:09:22;;;;;;;8.07;2.42;;;19.80;99.90;;;;;;5058799;28;20044;-65
2023/09/30 12:11:49;;;;;;;7.10;2.28;;;20.00;99.90;;;;;;5077452;28;20013;-63
2023/09/30 12:14:15;;;;;;;6.43;2.30;;;19.90;99.90;;;;;;5073579;28;20036;-67
2023/09/30 12:16:41;;;;;;;7.00;2.85;;;20.20;99.90;;;;;;5074138;28;20078;-67
2023/09/30 12:19:07;;;;;;;20.90;8.52;;;20.10;99.90;;;;;;5077418;28;20631;-65
2023/09/30 12:21:34;;;;;;;10.98;4.57;;;20.00;99.90;;;;;;5076771;28;20145;-65
2023/09/30 12:24:00;;;;;;;8.80;3.00;;;19.80;99.90;;;;;;5077134;28;20030;-66
2023/09/30 12:26:26;;;;;;;6.13;2.50;;;19.70;99.90;;;;;;5076790;28;20150;-65
2023/09/30 12:28:52;;;;;;;8.63;3.30;;;19.60;99.90;;;;;;5075834;28;20032;-65
2023/09/30 12:31:20;;;;;;;7.95;2.63;;;19.50;99.90;;;;;;5078965;28;20020;-65
2023/09/30 12:33:50;;;;;;;7.30;3.40;;;19.50;99.90;;;;;;5078975;28;20043;-65
2023/09/30 12:36:16;;;;;;;5.70;3.15;;;19.50;99.80;;;;;;5075113;28;20043;-65
2023/09/30 12:38:42;;;;;;;10.82;3.28;;;19.60;99.60;;;;;;5076020;28;20166;-65
2023/09/30 12:41:08;;;;;;;5.75;2.63;;;19.70;99.10;;;;;;5077336;28;20106;-65